KISN

Sloulin Field International Airport

Williston, North Dakota, USA
KISN 211733Z 2118/2218 16006KT P6SM FEW060 SCT200 FM220200 14006KT P6SM SCT200
Issued Valid From Valid To
Jun-21 @ 17:33 UTC
(39 minutes ago)
Jun-21 @ 18:00 UTC
(12 minutes ago)
Jun-22 @ 18:00 UTC
(in 24 hours)
Jun-21 @ 18:00 to Jun-22 @ 02:00
KISN 211733Z 2118/2218 16006KT P6SM FEW060 SCT200
Wind Visibility Clouds
160° at 6 knots Greater than 6 miles
  • Few at 6,000' AGL
  • Scattered at 20,000' AGL
From Jun-22 @ 02:00 to Jun-22 @ 18:00
FM220200 14006KT P6SM SCT200
Wind Visibility Clouds
140° at 6 knots Greater than 6 miles
  • Scattered at 20,000' AGL
KISN 211733Z 2118/2218 16006KT P6SM FEW060 SCT200 FM220200 14006KT P6SM SCT200
Issued Jun-21 @ 17:33 UTC
(39 minutes ago)
Valid From Jun-21 @ 18:00 UTC
(12 minutes ago)
Valid To Jun-22 @ 18:00 UTC
(in 24 hours)
Jun-21 @ 18:00 - Jun-22 @ 02:00
Wind Visibility
160° at 6 knots Greater than 6 miles
Clouds
  • Few at 6,000' AGL
  • Scattered at 20,000' AGL
From Jun-22 @ 02:00 - Jun-22 @ 18:00
Wind Visibility
140° at 6 knots Greater than 6 miles
Clouds
  • Scattered at 20,000' AGL